sensor_id;sensor_type;location;lat;lon;timestamp;P1;durP1;ratioP1;P2;durP2;ratioP2
10452;SDS011;5274;51.992;8.518;2023-05-29T00:00:05;26.30;;;24.05;;
10452;SDS011;5274;51.992;8.518;2023-05-29T00:02:32;24.92;;;23.23;;
10452;SDS011;5274;51.992;8.518;2023-05-29T00:04:58;26.38;;;24.27;;
10452;SDS011;5274;51.992;8.518;2023-05-29T00:07:24;25.45;;;23.65;;
10452;SDS011;5274;51.992;8.518;2023-05-29T00:09:50;26.80;;;24.60;;
10452;SDS011;5274;51.992;8.518;2023-05-29T00:12:16;26.02;;;24.30;;
10452;SDS011;5274;51.992;8.518;2023-05-29T00:14:43;25.48;;;23.42;;
10452;SDS011;5274;51.992;8.518;2023-05-29T00:17:09;25.13;;;23.20;;
10452;SDS011;5274;51.992;8.518;2023-05-29T00:19:37;28.17;;;26.02;;
10452;SDS011;5274;51.992;8.518;2023-05-29T00:22:03;29.52;;;26.92;;
10452;SDS011;5274;51.992;8.518;2023-05-29T00:24:29;28.13;;;26.02;;
10452;SDS011;5274;51.992;8.518;2023-05-29T00:26:55;28.35;;;26.30;;
10452;SDS011;5274;51.992;8.518;2023-05-29T00:29:21;28.20;;;25.98;;
10452;SDS011;5274;51.992;8.518;2023-05-29T00:31:47;28.48;;;26.40;;
10452;SDS011;5274;51.992;8.518;2023-05-29T00:34:13;28.10;;;25.88;;
10452;SDS011;5274;51.992;8.518;2023-05-29T00:36:39;29.45;;;26.90;;
10452;SDS011;5274;51.992;8.518;2023-05-29T00:39:05;27.90;;;25.83;;
10452;SDS011;5274;51.992;8.518;2023-05-29T00:41:31;27.98;;;25.45;;
10452;SDS011;5274;51.992;8.518;2023-05-29T00:43:57;27.25;;;25.38;;
10452;SDS011;5274;51.992;8.518;2023-05-29T00:46:23;28.92;;;26.55;;
10452;SDS011;5274;51.992;8.518;2023-05-29T00:48:49;27.17;;;25.52;;
10452;SDS011;5274;51.992;8.518;2023-05-29T00:51:15;26.85;;;24.70;;
10452;SDS011;5274;51.992;8.518;2023-05-29T00:53:41;27.67;;;25.42;;
10452;SDS011;5274;51.992;8.518;2023-05-29T00:56:08;26.08;;;24.08;;
10452;SDS011;5274;51.992;8.518;2023-05-29T00:58:34;27.75;;;25.13;;
10452;SDS011;5274;51.992;8.518;2023-05-29T01:01:01;26.58;;;24.73;;
10452;SDS011;5274;51.992;8.518;2023-05-29T01:03:28;26.60;;;24.92;;
10452;SDS011;5274;51.992;8.518;2023-05-29T01:05:54;27.33;;;25.20;;
10452;SDS011;5274;51.992;8.518;2023-05-29T01:08:20;26.90;;;24.63;;
10452;SDS011;5274;51.992;8.518;2023-05-29T01:10:46;27.08;;;24.98;;
10452;SDS011;5274;51.992;8.518;2023-05-29T01:13:18;26.33;;;24.10;;
10452;SDS011;5274;51.992;8.518;2023-05-29T01:15:46;28.45;;;25.98;;
10452;SDS011;5274;51.992;8.518;2023-05-29T01:18:19;26.27;;;24.45;;
10452;SDS011;5274;51.992;8.518;2023-05-29T01:20:56;27.77;;;25.67;;
10452;SDS011;5274;51.992;8.518;2023-05-29T01:26:00;27.92;;;26.08;;
10452;SDS011;5274;51.992;8.518;2023-05-29T01:28:32;29.85;;;27.13;;
10452;SDS011;5274;51.992;8.518;2023-05-29T01:30:59;28.27;;;25.80;;
10452;SDS011;5274;51.992;8.518;2023-05-29T01:33:26;28.73;;;26.45;;
10452;SDS011;5274;51.992;8.518;2023-05-29T01:35:52;27.83;;;25.55;;
10452;SDS011;5274;51.992;8.518;2023-05-29T01:38:18;27.88;;;25.48;;
10452;SDS011;5274;51.992;8.518;2023-05-29T01:40:44;26.55;;;24.48;;
10452;SDS011;5274;51.992;8.518;2023-05-29T01:43:11;27.92;;;25.42;;
10452;SDS011;5274;51.992;8.518;2023-05-29T01:45:38;27.10;;;24.92;;
10452;SDS011;5274;51.992;8.518;2023-05-29T01:48:04;27.20;;;24.75;;
10452;SDS011;5274;51.992;8.518;2023-05-29T01:50:30;28.10;;;25.85;;
10452;SDS011;5274;51.992;8.518;2023-05-29T01:52:56;27.90;;;25.58;;
10452;SDS011;5274;51.992;8.518;2023-05-29T01:55:22;27.98;;;25.77;;
10452;SDS011;5274;51.992;8.518;2023-05-29T01:57:48;29.90;;;27.17;;
10452;SDS011;5274;51.992;8.518;2023-05-29T02:00:16;27.85;;;25.55;;
10452;SDS011;5274;51.992;8.518;2023-05-29T02:02:44;29.10;;;26.70;;
10452;SDS011;5274;51.992;8.518;2023-05-29T02:05:10;30.02;;;27.35;;
10452;SDS011;5274;51.992;8.518;2023-05-29T02:07:36;29.27;;;27.17;;
10452;SDS011;5274;51.992;8.518;2023-05-29T02:10:06;30.88;;;28.13;;
10452;SDS011;5274;51.992;8.518;2023-05-29T02:12:32;29.40;;;27.13;;
10452;SDS011;5274;51.992;8.518;2023-05-29T02:14:58;28.17;;;25.95;;
10452;SDS011;5274;51.992;8.518;2023-05-29T02:17:24;28.60;;;26.50;;
10452;SDS011;5274;51.992;8.518;2023-05-29T02:19:50;30.10;;;27.45;;
10452;SDS011;5274;51.992;8.518;2023-05-29T02:22:17;28.85;;;26.95;;
10452;SDS011;5274;51.992;8.518;2023-05-29T02:24:43;29.92;;;27.42;;
10452;SDS011;5274;51.992;8.518;2023-05-29T02:27:09;30.10;;;27.50;;
10452;SDS011;5274;51.992;8.518;2023-05-29T02:29:35;30.33;;;27.92;;
10452;SDS011;5274;51.992;8.518;2023-05-29T02:32:01;30.52;;;28.35;;
10452;SDS011;5274;51.992;8.518;2023-05-29T02:34:27;29.83;;;27.60;;
10452;SDS011;5274;51.992;8.518;2023-05-29T02:36:54;28.88;;;26.42;;
10452;SDS011;5274;51.992;8.518;2023-05-29T02:39:20;30.10;;;27.17;;
10452;SDS011;5274;51.992;8.518;2023-05-29T02:41:46;29.10;;;27.13;;
10452;SDS011;5274;51.992;8.518;2023-05-29T02:44:12;31.17;;;28.63;;
10452;SDS011;5274;51.992;8.518;2023-05-29T02:46:38;29.85;;;27.70;;
10452;SDS011;5274;51.992;8.518;2023-05-29T02:49:03;29.17;;;27.00;;
10452;SDS011;5274;51.992;8.518;2023-05-29T02:51:30;28.85;;;26.33;;
10452;SDS011;5274;51.992;8.518;2023-05-29T02:53:57;27.95;;;25.98;;
10452;SDS011;5274;51.992;8.518;2023-05-29T02:56:23;27.67;;;25.20;;
10452;SDS011;5274;51.992;8.518;2023-05-29T02:58:52;28.85;;;26.50;;
10452;SDS011;5274;51.992;8.518;2023-05-29T03:01:18;28.65;;;26.45;;
10452;SDS011;5274;51.992;8.518;2023-05-29T03:03:44;29.52;;;26.92;;
10452;SDS011;5274;51.992;8.518;2023-05-29T03:06:10;28.00;;;25.50;;
10452;SDS011;5274;51.992;8.518;2023-05-29T03:08:37;28.60;;;26.35;;
10452;SDS011;5274;51.992;8.518;2023-05-29T03:11:07;29.55;;;26.55;;
10452;SDS011;5274;51.992;8.518;2023-05-29T03:13:35;28.08;;;26.05;;
10452;SDS011;5274;51.992;8.518;2023-05-29T03:16:01;28.83;;;26.45;;
10452;SDS011;5274;51.992;8.518;2023-05-29T03:18:27;29.65;;;26.58;;
10452;SDS011;5274;51.992;8.518;2023-05-29T03:20:53;29.35;;;26.67;;
10452;SDS011;5274;51.992;8.518;2023-05-29T03:23:19;27.92;;;25.85;;
10452;SDS011;5274;51.992;8.518;2023-05-29T03:25:45;26.63;;;24.67;;
10452;SDS011;5274;51.992;8.518;2023-05-29T03:28:11;27.63;;;25.25;;
10452;SDS011;5274;51.992;8.518;2023-05-29T03:30:37;27.35;;;25.33;;
10452;SDS011;5274;51.992;8.518;2023-05-29T03:33:03;28.40;;;26.33;;
10452;SDS011;5274;51.992;8.518;2023-05-29T03:35:29;29.17;;;26.85;;
10452;SDS011;5274;51.992;8.518;2023-05-29T03:37:55;29.58;;;27.38;;
10452;SDS011;5274;51.992;8.518;2023-05-29T03:40:21;28.48;;;26.30;;
10452;SDS011;5274;51.992;8.518;2023-05-29T03:42:47;28.73;;;26.35;;
10452;SDS011;5274;51.992;8.518;2023-05-29T03:45:13;28.15;;;25.85;;
10452;SDS011;5274;51.992;8.518;2023-05-29T03:47:39;29.55;;;27.23;;
10452;SDS011;5274;51.992;8.518;2023-05-29T03:50:05;28.13;;;26.08;;
10452;SDS011;5274;51.992;8.518;2023-05-29T03:52:32;28.23;;;25.90;;
10452;SDS011;5274;51.992;8.518;2023-05-29T03:54:58;30.50;;;27.75;;
10452;SDS011;5274;51.992;8.518;2023-05-29T03:57:24;29.25;;;27.00;;
10452;SDS011;5274;51.992;8.518;2023-05-29T03:59:51;17.25;;;10.82;;
10452;SDS011;5274;51.992;8.518;2023-05-29T04:02:17;11.82;;;9.18;;
10452;SDS011;5274;51.992;8.518;2023-05-29T04:04:43;19.02;;;11.05;;
10452;SDS011;5274;51.992;8.518;2023-05-29T04:07:09;12.52;;;11.20;;
10452;SDS011;5274;51.992;8.518;2023-05-29T04:09:35;13.80;;;10.32;;
10452;SDS011;5274;51.992;8.518;2023-05-29T04:12:02;11.27;;;10.30;;
10452;SDS011;5274;51.992;8.518;2023-05-29T04:14:30;14.15;;;10.50;;
10452;SDS011;5274;51.992;8.518;2023-05-29T04:16:56;11.30;;;10.27;;
10452;SDS011;5274;51.992;8.518;2023-05-29T04:19:22;12.45;;;11.05;;
10452;SDS011;5274;51.992;8.518;2023-05-29T04:21:48;13.68;;;11.35;;
10452;SDS011;5274;51.992;8.518;2023-05-29T04:24:14;15.23;;;11.20;;
10452;SDS011;5274;51.992;8.518;2023-05-29T04:26:40;17.23;;;11.60;;
10452;SDS011;5274;51.992;8.518;2023-05-29T04:29:06;13.48;;;11.40;;
10452;SDS011;5274;51.992;8.518;2023-05-29T04:31:32;19.45;;;10.48;;
10452;SDS011;5274;51.992;8.518;2023-05-29T04:33:58;13.63;;;12.35;;
10452;SDS011;5274;51.992;8.518;2023-05-29T04:36:25;14.80;;;11.68;;
10452;SDS011;5274;51.992;8.518;2023-05-29T04:38:52;15.05;;;11.80;;
10452;SDS011;5274;51.992;8.518;2023-05-29T04:41:18;14.38;;;12.43;;
10452;SDS011;5274;51.992;8.518;2023-05-29T04:43:48;16.30;;;11.95;;
10452;SDS011;5274;51.992;8.518;2023-05-29T04:46:14;19.23;;;13.07;;
10452;SDS011;5274;51.992;8.518;2023-05-29T04:48:40;13.70;;;12.32;;
10452;SDS011;5274;51.992;8.518;2023-05-29T04:51:06;14.88;;;10.40;;
10452;SDS011;5274;51.992;8.518;2023-05-29T04:53:35;15.15;;;9.25;;
10452;SDS011;5274;51.992;8.518;2023-05-29T04:56:01;10.48;;;7.60;;
10452;SDS011;5274;51.992;8.518;2023-05-29T04:58:27;10.88;;;8.40;;
10452;SDS011;5274;51.992;8.518;2023-05-29T05:00:53;14.60;;;9.27;;
10452;SDS011;5274;51.992;8.518;2023-05-29T05:03:22;14.55;;;9.90;;
10452;SDS011;5274;51.992;8.518;2023-05-29T05:05:50;14.98;;;9.63;;
10452;SDS011;5274;51.992;8.518;2023-05-29T05:08:16;12.05;;;10.55;;
10452;SDS011;5274;51.992;8.518;2023-05-29T05:10:42;16.17;;;10.20;;
10452;SDS011;5274;51.992;8.518;2023-05-29T05:13:08;14.60;;;9.77;;
10452;SDS011;5274;51.992;8.518;2023-05-29T05:15:36;15.10;;;9.70;;
10452;SDS011;5274;51.992;8.518;2023-05-29T05:18:02;21.98;;;10.20;;
10452;SDS011;5274;51.992;8.518;2023-05-29T05:20:28;11.35;;;4.38;;
10452;SDS011;5274;51.992;8.518;2023-05-29T05:22:54;9.38;;;4.05;;
10452;SDS011;5274;51.992;8.518;2023-05-29T05:25:20;10.30;;;4.32;;
10452;SDS011;5274;51.992;8.518;2023-05-29T05:27:46;13.82;;;4.57;;
10452;SDS011;5274;51.992;8.518;2023-05-29T05:30:12;11.75;;;5.00;;
10452;SDS011;5274;51.992;8.518;2023-05-29T05:32:38;15.43;;;4.47;;
10452;SDS011;5274;51.992;8.518;2023-05-29T05:35:04;13.55;;;4.38;;
10452;SDS011;5274;51.992;8.518;2023-05-29T05:37:30;8.80;;;4.10;;
10452;SDS011;5274;51.992;8.518;2023-05-29T05:39:56;49.47;;;45.40;;
10452;SDS011;5274;51.992;8.518;2023-05-29T05:42:25;50.22;;;45.65;;
10452;SDS011;5274;51.992;8.518;2023-05-29T05:44:51;49.80;;;46.08;;
10452;SDS011;5274;51.992;8.518;2023-05-29T05:47:17;51.08;;;46.88;;
10452;SDS011;5274;51.992;8.518;2023-05-29T05:49:42;49.72;;;45.83;;
10452;SDS011;5274;51.992;8.518;2023-05-29T05:52:09;50.33;;;46.30;;
10452;SDS011;5274;51.992;8.518;2023-05-29T05:54:35;49.78;;;45.60;;
10452;SDS011;5274;51.992;8.518;2023-05-29T05:57:01;51.33;;;46.78;;
10452;SDS011;5274;51.992;8.518;2023-05-29T05:59:27;44.72;;;40.97;;
10452;SDS011;5274;51.992;8.518;2023-05-29T06:01:53;44.72;;;40.83;;
10452;SDS011;5274;51.992;8.518;2023-05-29T06:04:19;43.90;;;40.03;;
10452;SDS011;5274;51.992;8.518;2023-05-29T06:06:45;41.30;;;38.20;;
10452;SDS011;5274;51.992;8.518;2023-05-29T06:09:11;48.17;;;43.97;;
10452;SDS011;5274;51.992;8.518;2023-05-29T06:11:37;46.70;;;42.65;;
10452;SDS011;5274;51.992;8.518;2023-05-29T06:14:03;46.53;;;42.80;;
10452;SDS011;5274;51.992;8.518;2023-05-29T06:16:29;46.45;;;42.53;;
10452;SDS011;5274;51.992;8.518;2023-05-29T06:18:55;50.22;;;46.17;;
10452;SDS011;5274;51.992;8.518;2023-05-29T06:21:21;52.22;;;47.78;;
10452;SDS011;5274;51.992;8.518;2023-05-29T06:23:47;51.97;;;47.67;;
10452;SDS011;5274;51.992;8.518;2023-05-29T06:26:13;47.47;;;43.67;;
10452;SDS011;5274;51.992;8.518;2023-05-29T06:28:40;51.58;;;47.50;;
10452;SDS011;5274;51.992;8.518;2023-05-29T06:31:07;51.97;;;47.83;;
10452;SDS011;5274;51.992;8.518;2023-05-29T06:33:33;51.05;;;47.40;;
10452;SDS011;5274;51.992;8.518;2023-05-29T06:35:58;46.35;;;42.33;;
10452;SDS011;5274;51.992;8.518;2023-05-29T06:38:24;48.53;;;44.35;;
10452;SDS011;5274;51.992;8.518;2023-05-29T06:40:50;51.83;;;47.53;;
10452;SDS011;5274;51.992;8.518;2023-05-29T06:43:16;51.35;;;47.35;;
10452;SDS011;5274;51.992;8.518;2023-05-29T06:45:42;49.90;;;45.75;;
10452;SDS011;5274;51.992;8.518;2023-05-29T06:48:08;52.03;;;47.78;;
10452;SDS011;5274;51.992;8.518;2023-05-29T06:50:35;52.03;;;47.78;;
10452;SDS011;5274;51.992;8.518;2023-05-29T06:53:01;52.58;;;48.45;;
10452;SDS011;5274;51.992;8.518;2023-05-29T06:55:27;53.05;;;48.97;;
10452;SDS011;5274;51.992;8.518;2023-05-29T06:57:53;52.28;;;47.92;;
10452;SDS011;5274;51.992;8.518;2023-05-29T07:00:19;51.15;;;47.60;;
10452;SDS011;5274;51.992;8.518;2023-05-29T07:02:45;50.97;;;46.83;;
10452;SDS011;5274;51.992;8.518;2023-05-29T07:05:10;43.13;;;39.70;;
10452;SDS011;5274;51.992;8.518;2023-05-29T07:07:36;46.25;;;43.05;;
10452;SDS011;5274;51.992;8.518;2023-05-29T07:10:02;46.38;;;42.67;;
10452;SDS011;5274;51.992;8.518;2023-05-29T07:12:28;43.28;;;39.78;;
10452;SDS011;5274;51.992;8.518;2023-05-29T07:14:54;43.10;;;40.10;;
10452;SDS011;5274;51.992;8.518;2023-05-29T07:17:20;47.55;;;43.95;;
10452;SDS011;5274;51.992;8.518;2023-05-29T07:19:46;47.65;;;43.85;;
10452;SDS011;5274;51.992;8.518;2023-05-29T07:22:14;49.20;;;45.63;;
10452;SDS011;5274;51.992;8.518;2023-05-29T07:24:40;48.53;;;45.22;;
10452;SDS011;5274;51.992;8.518;2023-05-29T07:27:06;51.55;;;47.55;;
10452;SDS011;5274;51.992;8.518;2023-05-29T07:29:32;51.28;;;46.92;;
10452;SDS011;5274;51.992;8.518;2023-05-29T07:31:58;46.35;;;42.45;;
10452;SDS011;5274;51.992;8.518;2023-05-29T07:34:24;46.95;;;43.80;;
10452;SDS011;5274;51.992;8.518;2023-05-29T07:36:57;46.70;;;43.33;;
10452;SDS011;5274;51.992;8.518;2023-05-29T07:39:23;45.35;;;41.72;;
10452;SDS011;5274;51.992;8.518;2023-05-29T07:41:49;44.35;;;40.55;;
10452;SDS011;5274;51.992;8.518;2023-05-29T07:44:15;41.38;;;37.95;;
10452;SDS011;5274;51.992;8.518;2023-05-29T07:46:41;42.85;;;39.53;;
10452;SDS011;5274;51.992;8.518;2023-05-29T07:49:07;43.47;;;40.55;;
10452;SDS011;5274;51.992;8.518;2023-05-29T07:51:33;40.88;;;37.72;;
10452;SDS011;5274;51.992;8.518;2023-05-29T07:53:59;45.47;;;41.60;;
10452;SDS011;5274;51.992;8.518;2023-05-29T07:56:25;42.60;;;39.50;;
10452;SDS011;5274;51.992;8.518;2023-05-29T07:58:51;45.55;;;42.42;;
10452;SDS011;5274;51.992;8.518;2023-05-29T08:01:20;45.78;;;42.50;;
10452;SDS011;5274;51.992;8.518;2023-05-29T08:03:49;42.35;;;39.45;;
10452;SDS011;5274;51.992;8.518;2023-05-29T08:06:15;41.63;;;38.60;;
10452;SDS011;5274;51.992;8.518;2023-05-29T08:08:41;45.70;;;42.50;;
10452;SDS011;5274;51.992;8.518;2023-05-29T08:11:08;45.05;;;41.78;;
10452;SDS011;5274;51.992;8.518;2023-05-29T08:13:34;43.85;;;40.63;;
10452;SDS011;5274;51.992;8.518;2023-05-29T08:16:00;43.03;;;39.72;;
10452;SDS011;5274;51.992;8.518;2023-05-29T08:18:26;43.85;;;40.60;;
10452;SDS011;5274;51.992;8.518;2023-05-29T08:20:52;45.40;;;42.42;;
10452;SDS011;5274;51.992;8.518;2023-05-29T08:23:18;45.00;;;41.75;;
10452;SDS011;5274;51.992;8.518;2023-05-29T08:25:44;41.70;;;38.88;;
10452;SDS011;5274;51.992;8.518;2023-05-29T08:28:10;45.63;;;42.13;;
10452;SDS011;5274;51.992;8.518;2023-05-29T08:30:36;44.42;;;41.15;;
10452;SDS011;5274;51.992;8.518;2023-05-29T08:33:02;45.15;;;41.58;;
10452;SDS011;5274;51.992;8.518;2023-05-29T08:35:29;46.00;;;43.10;;
10452;SDS011;5274;51.992;8.518;2023-05-29T08:37:55;46.35;;;42.85;;
10452;SDS011;5274;51.992;8.518;2023-05-29T08:40:21;46.22;;;42.65;;
10452;SDS011;5274;51.992;8.518;2023-05-29T08:42:47;45.55;;;42.05;;
10452;SDS011;5274;51.992;8.518;2023-05-29T08:45:16;43.85;;;40.75;;
10452;SDS011;5274;51.992;8.518;2023-05-29T08:47:44;43.53;;;40.42;;
10452;SDS011;5274;51.992;8.518;2023-05-29T08:50:13;44.28;;;40.45;;
10452;SDS011;5274;51.992;8.518;2023-05-29T08:52:40;44.72;;;41.40;;
10452;SDS011;5274;51.992;8.518;2023-05-29T08:55:07;46.00;;;42.47;;
10452;SDS011;5274;51.992;8.518;2023-05-29T08:57:33;45.03;;;41.60;;
10452;SDS011;5274;51.992;8.518;2023-05-29T09:00:00;46.25;;;42.95;;
10452;SDS011;5274;51.992;8.518;2023-05-29T09:02:30;44.17;;;41.10;;
10452;SDS011;5274;51.992;8.518;2023-05-29T09:04:56;43.60;;;40.25;;
10452;SDS011;5274;51.992;8.518;2023-05-29T09:07:23;45.30;;;41.72;;
10452;SDS011;5274;51.992;8.518;2023-05-29T09:09:50;43.60;;;40.58;;
10452;SDS011;5274;51.992;8.518;2023-05-29T09:12:16;44.50;;;41.30;;
10452;SDS011;5274;51.992;8.518;2023-05-29T09:14:43;45.75;;;42.58;;
10452;SDS011;5274;51.992;8.518;2023-05-29T09:17:10;44.65;;;41.42;;
10452;SDS011;5274;51.992;8.518;2023-05-29T09:19:37;45.10;;;41.70;;
10452;SDS011;5274;51.992;8.518;2023-05-29T09:22:07;44.13;;;40.80;;
10452;SDS011;5274;51.992;8.518;2023-05-29T09:24:35;46.45;;;43.17;;
10452;SDS011;5274;51.992;8.518;2023-05-29T09:27:02;44.78;;;41.67;;
10452;SDS011;5274;51.992;8.518;2023-05-29T09:29:32;43.60;;;40.50;;
10452;SDS011;5274;51.992;8.518;2023-05-29T09:31:58;42.63;;;39.65;;
10452;SDS011;5274;51.992;8.518;2023-05-29T09:34:25;43.60;;;40.80;;
10452;SDS011;5274;51.992;8.518;2023-05-29T09:37:00;45.88;;;42.83;;
10452;SDS011;5274;51.992;8.518;2023-05-29T09:39:32;45.47;;;42.72;;
10452;SDS011;5274;51.992;8.518;2023-05-29T09:41:58;47.88;;;44.13;;
10452;SDS011;5274;51.992;8.518;2023-05-29T09:44:25;45.47;;;42.67;;
10452;SDS011;5274;51.992;8.518;2023-05-29T09:46:56;47.47;;;43.83;;
10452;SDS011;5274;51.992;8.518;2023-05-29T09:49:23;44.08;;;41.10;;
10452;SDS011;5274;51.992;8.518;2023-05-29T09:51:49;45.72;;;42.83;;
10452;SDS011;5274;51.992;8.518;2023-05-29T09:54:18;46.75;;;43.70;;
10452;SDS011;5274;51.992;8.518;2023-05-29T09:56:45;47.78;;;44.50;;
10452;SDS011;5274;51.992;8.518;2023-05-29T09:59:11;45.22;;;42.05;;
10452;SDS011;5274;51.992;8.518;2023-05-29T10:01:44;46.53;;;43.38;;
10452;SDS011;5274;51.992;8.518;2023-05-29T10:04:10;44.30;;;41.35;;
10452;SDS011;5274;51.992;8.518;2023-05-29T10:06:37;42.20;;;39.50;;
10452;SDS011;5274;51.992;8.518;2023-05-29T10:09:05;43.80;;;40.78;;
10452;SDS011;5274;51.992;8.518;2023-05-29T10:11:32;40.47;;;37.83;;
10452;SDS011;5274;51.992;8.518;2023-05-29T10:13:59;44.92;;;41.67;;
10452;SDS011;5274;51.992;8.518;2023-05-29T10:16:26;43.60;;;40.70;;
10452;SDS011;5274;51.992;8.518;2023-05-29T10:18:53;45.33;;;42.20;;
10452;SDS011;5274;51.992;8.518;2023-05-29T10:21:20;45.72;;;42.72;;
10452;SDS011;5274;51.992;8.518;2023-05-29T10:23:50;45.30;;;42.05;;
10452;SDS011;5274;51.992;8.518;2023-05-29T10:26:22;45.10;;;42.08;;
10452;SDS011;5274;51.992;8.518;2023-05-29T10:37:09;46.67;;;43.40;;
10452;SDS011;5274;51.992;8.518;2023-05-29T10:39:41;43.08;;;40.17;;
10452;SDS011;5274;51.992;8.518;2023-05-29T10:44:52;46.45;;;43.15;;
10452;SDS011;5274;51.992;8.518;2023-05-29T10:47:24;45.67;;;42.35;;
10452;SDS011;5274;51.992;8.518;2023-05-29T10:49:50;46.35;;;43.00;;
10452;SDS011;5274;51.992;8.518;2023-05-29T10:52:19;48.10;;;44.90;;
10452;SDS011;5274;51.992;8.518;2023-05-29T10:54:50;45.47;;;42.40;;
10452;SDS011;5274;51.992;8.518;2023-05-29T10:57:17;47.65;;;44.22;;
10452;SDS011;5274;51.992;8.518;2023-05-29T10:59:44;41.22;;;38.72;;
10452;SDS011;5274;51.992;8.518;2023-05-29T11:02:10;46.33;;;43.45;;
10452;SDS011;5274;51.992;8.518;2023-05-29T11:04:37;47.78;;;44.63;;
10452;SDS011;5274;51.992;8.518;2023-05-29T11:07:03;39.17;;;36.75;;
10452;SDS011;5274;51.992;8.518;2023-05-29T11:12:09;45.92;;;42.75;;
10452;SDS011;5274;51.992;8.518;2023-05-29T11:14:53;47.38;;;44.38;;
10452;SDS011;5274;51.992;8.518;2023-05-29T11:20:04;46.17;;;43.25;;
10452;SDS011;5274;51.992;8.518;2023-05-29T11:25:05;47.30;;;44.20;;
10452;SDS011;5274;51.992;8.518;2023-05-29T11:27:31;47.25;;;44.15;;
10452;SDS011;5274;51.992;8.518;2023-05-29T11:29:57;44.13;;;41.55;;
10452;SDS011;5274;51.992;8.518;2023-05-29T11:32:23;43.10;;;40.00;;
10452;SDS011;5274;51.992;8.518;2023-05-29T11:34:52;45.15;;;42.08;;
10452;SDS011;5274;51.992;8.518;2023-05-29T11:37:21;44.33;;;41.33;;
10452;SDS011;5274;51.992;8.518;2023-05-29T11:39:48;42.90;;;39.80;;
10452;SDS011;5274;51.992;8.518;2023-05-29T11:42:13;44.97;;;41.67;;
10452;SDS011;5274;51.992;8.518;2023-05-29T11:44:40;47.28;;;44.10;;
10452;SDS011;5274;51.992;8.518;2023-05-29T11:47:06;46.10;;;42.85;;
10452;SDS011;5274;51.992;8.518;2023-05-29T11:49:33;46.80;;;43.60;;
10452;SDS011;5274;51.992;8.518;2023-05-29T11:52:12;42.28;;;39.25;;
10452;SDS011;5274;51.992;8.518;2023-05-29T11:54:39;50.40;;;46.88;;
10452;SDS011;5274;51.992;8.518;2023-05-29T11:57:11;49.13;;;45.67;;
10452;SDS011;5274;51.992;8.518;2023-05-29T11:59:42;47.28;;;43.72;;
10452;SDS011;5274;51.992;8.518;2023-05-29T12:02:08;45.60;;;42.55;;
10452;SDS011;5274;51.992;8.518;2023-05-29T12:04:35;44.40;;;41.42;;
10452;SDS011;5274;51.992;8.518;2023-05-29T12:07:01;41.17;;;38.65;;
10452;SDS011;5274;51.992;8.518;2023-05-29T12:09:27;44.13;;;41.00;;
10452;SDS011;5274;51.992;8.518;2023-05-29T12:12:03;43.80;;;40.58;;
10452;SDS011;5274;51.992;8.518;2023-05-29T12:14:29;45.58;;;42.13;;
10452;SDS011;5274;51.992;8.518;2023-05-29T12:16:55;46.33;;;43.28;;
10452;SDS011;5274;51.992;8.518;2023-05-29T12:19:21;43.22;;;40.40;;
10452;SDS011;5274;51.992;8.518;2023-05-29T12:21:47;43.15;;;40.10;;
10452;SDS011;5274;51.992;8.518;2023-05-29T12:24:13;45.60;;;42.65;;
10452;SDS011;5274;51.992;8.518;2023-05-29T12:26:39;48.10;;;44.42;;
10452;SDS011;5274;51.992;8.518;2023-05-29T12:29:05;50.75;;;47.42;;
10452;SDS011;5274;51.992;8.518;2023-05-29T12:31:31;47.63;;;44.53;;
10452;SDS011;5274;51.992;8.518;2023-05-29T12:34:08;47.65;;;44.28;;
10452;SDS011;5274;51.992;8.518;2023-05-29T12:36:35;49.78;;;46.42;;
10452;SDS011;5274;51.992;8.518;2023-05-29T12:39:04;48.05;;;45.00;;
10452;SDS011;5274;51.992;8.518;2023-05-29T12:41:34;48.20;;;44.67;;
10452;SDS011;5274;51.992;8.518;2023-05-29T12:44:03;47.90;;;44.40;;
10452;SDS011;5274;51.992;8.518;2023-05-29T12:46:34;47.78;;;44.60;;
10452;SDS011;5274;51.992;8.518;2023-05-29T12:49:10;48.30;;;44.97;;
10452;SDS011;5274;51.992;8.518;2023-05-29T12:51:39;46.13;;;43.20;;
10452;SDS011;5274;51.992;8.518;2023-05-29T12:54:05;48.15;;;44.85;;
10452;SDS011;5274;51.992;8.518;2023-05-29T12:56:31;48.80;;;45.55;;
10452;SDS011;5274;51.992;8.518;2023-05-29T12:58:57;46.97;;;43.72;;
10452;SDS011;5274;51.992;8.518;2023-05-29T13:01:23;47.95;;;44.67;;
10452;SDS011;5274;51.992;8.518;2023-05-29T13:03:49;52.75;;;48.95;;
10452;SDS011;5274;51.992;8.518;2023-05-29T13:06:15;51.33;;;47.92;;
10452;SDS011;5274;51.992;8.518;2023-05-29T13:08:41;47.50;;;43.92;;
10452;SDS011;5274;51.992;8.518;2023-05-29T13:11:07;49.88;;;46.40;;
10452;SDS011;5274;51.992;8.518;2023-05-29T13:13:33;49.67;;;46.47;;
10452;SDS011;5274;51.992;8.518;2023-05-29T13:15:59;47.85;;;44.60;;
10452;SDS011;5274;51.992;8.518;2023-05-29T13:18:25;47.65;;;44.42;;
10452;SDS011;5274;51.992;8.518;2023-05-29T13:20:51;46.72;;;43.60;;
10452;SDS011;5274;51.992;8.518;2023-05-29T13:23:17;46.90;;;43.78;;
10452;SDS011;5274;51.992;8.518;2023-05-29T13:25:43;48.28;;;45.10;;
10452;SDS011;5274;51.992;8.518;2023-05-29T13:28:10;46.88;;;43.75;;
10452;SDS011;5274;51.992;8.518;2023-05-29T13:30:36;46.83;;;43.47;;
10452;SDS011;5274;51.992;8.518;2023-05-29T13:33:02;47.55;;;44.50;;
10452;SDS011;5274;51.992;8.518;2023-05-29T13:35:28;47.15;;;44.22;;
10452;SDS011;5274;51.992;8.518;2023-05-29T13:37:54;47.55;;;44.33;;
10452;SDS011;5274;51.992;8.518;2023-05-29T13:40:20;48.60;;;45.20;;
10452;SDS011;5274;51.992;8.518;2023-05-29T13:42:46;49.22;;;45.92;;
10452;SDS011;5274;51.992;8.518;2023-05-29T13:45:12;47.60;;;44.33;;
10452;SDS011;5274;51.992;8.518;2023-05-29T13:47:39;47.45;;;44.20;;
10452;SDS011;5274;51.992;8.518;2023-05-29T13:50:05;46.03;;;42.83;;
10452;SDS011;5274;51.992;8.518;2023-05-29T13:52:31;44.92;;;42.10;;
10452;SDS011;5274;51.992;8.518;2023-05-29T13:54:57;46.45;;;43.42;;
10452;SDS011;5274;51.992;8.518;2023-05-29T13:57:29;48.22;;;44.92;;
10452;SDS011;5274;51.992;8.518;2023-05-29T13:59:56;48.78;;;45.40;;
10452;SDS011;5274;51.992;8.518;2023-05-29T14:02:22;48.58;;;45.30;;
10452;SDS011;5274;51.992;8.518;2023-05-29T14:04:50;48.60;;;45.58;;
10452;SDS011;5274;51.992;8.518;2023-05-29T14:07:16;45.83;;;43.05;;
10452;SDS011;5274;51.992;8.518;2023-05-29T14:09:42;45.05;;;42.05;;
10452;SDS011;5274;51.992;8.518;2023-05-29T14:12:08;46.55;;;43.22;;
10452;SDS011;5274;51.992;8.518;2023-05-29T14:14:34;47.40;;;44.08;;
10452;SDS011;5274;51.992;8.518;2023-05-29T14:17:00;47.03;;;43.63;;
10452;SDS011;5274;51.992;8.518;2023-05-29T14:19:26;46.63;;;43.17;;
10452;SDS011;5274;51.992;8.518;2023-05-29T14:21:52;46.15;;;43.10;;
10452;SDS011;5274;51.992;8.518;2023-05-29T14:24:18;43.75;;;40.75;;
10452;SDS011;5274;51.992;8.518;2023-05-29T14:26:44;45.00;;;41.90;;
10452;SDS011;5274;51.992;8.518;2023-05-29T14:29:12;45.58;;;42.47;;
10452;SDS011;5274;51.992;8.518;2023-05-29T14:31:38;45.70;;;42.63;;
10452;SDS011;5274;51.992;8.518;2023-05-29T14:34:04;46.03;;;42.30;;
10452;SDS011;5274;51.992;8.518;2023-05-29T14:36:31;43.85;;;40.83;;
10452;SDS011;5274;51.992;8.518;2023-05-29T14:38:57;45.25;;;42.15;;
10452;SDS011;5274;51.992;8.518;2023-05-29T14:41:23;45.22;;;42.05;;
10452;SDS011;5274;51.992;8.518;2023-05-29T14:43:50;45.95;;;42.70;;
10452;SDS011;5274;51.992;8.518;2023-05-29T14:46:17;46.50;;;43.45;;
10452;SDS011;5274;51.992;8.518;2023-05-29T14:48:43;46.42;;;43.20;;
10452;SDS011;5274;51.992;8.518;2023-05-29T14:51:09;46.22;;;43.20;;
10452;SDS011;5274;51.992;8.518;2023-05-29T14:53:35;45.42;;;42.33;;